sensor_id;sensor_type;location;lat;lon;timestamp;temperature;humidity
65692;DHT22;52411;52.716;6.696;2023-12-20T00:01:46;6.10;99.90
65692;DHT22;52411;52.716;6.696;2023-12-20T00:04:12;6.20;99.90
65692;DHT22;52411;52.716;6.696;2023-12-20T00:06:37;6.20;99.90
65692;DHT22;52411;52.716;6.696;2023-12-20T00:09:03;6.20;99.90
65692;DHT22;52411;52.716;6.696;2023-12-20T00:11:28;6.20;99.90
65692;DHT22;52411;52.716;6.696;2023-12-20T00:13:54;6.20;99.90
65692;DHT22;52411;52.716;6.696;2023-12-20T00:16:20;6.20;99.90
65692;DHT22;52411;52.716;6.696;2023-12-20T00:18:45;6.30;99.90
65692;DHT22;52411;52.716;6.696;2023-12-20T00:21:11;6.30;99.90
65692;DHT22;52411;52.716;6.696;2023-12-20T00:23:36;6.30;99.90
65692;DHT22;52411;52.716;6.696;2023-12-20T00:26:02;6.40;99.90
65692;DHT22;52411;52.716;6.696;2023-12-20T00:28:28;6.40;99.90
65692;DHT22;52411;52.716;6.696;2023-12-20T00:30:53;6.30;99.90
65692;DHT22;52411;52.716;6.696;2023-12-20T00:33:19;6.20;99.90
65692;DHT22;52411;52.716;6.696;2023-12-20T00:35:44;6.20;99.90
65692;DHT22;52411;52.716;6.696;2023-12-20T00:38:10;6.10;99.90
65692;DHT22;52411;52.716;6.696;2023-12-20T00:40:37;6.00;99.90
65692;DHT22;52411;52.716;6.696;2023-12-20T00:43:02;5.90;99.90
65692;DHT22;52411;52.716;6.696;2023-12-20T00:45:28;5.90;99.90
65692;DHT22;52411;52.716;6.696;2023-12-20T00:47:54;5.80;99.90
65692;DHT22;52411;52.716;6.696;2023-12-20T00:50:19;5.70;99.90
65692;DHT22;52411;52.716;6.696;2023-12-20T00:52:47;5.60;99.90
65692;DHT22;52411;52.716;6.696;2023-12-20T00:55:12;5.60;99.90
65692;DHT22;52411;52.716;6.696;2023-12-20T00:57:38;5.50;99.90
65692;DHT22;52411;52.716;6.696;2023-12-20T01:00:04;5.50;99.90
65692;DHT22;52411;52.716;6.696;2023-12-20T01:02:30;5.50;99.90
65692;DHT22;52411;52.716;6.696;2023-12-20T01:04:55;5.50;99.90
65692;DHT22;52411;52.716;6.696;2023-12-20T01:07:21;5.50;99.90
65692;DHT22;52411;52.716;6.696;2023-12-20T01:09:47;5.50;99.90
65692;DHT22;52411;52.716;6.696;2023-12-20T01:12:12;5.50;99.90
65692;DHT22;52411;52.716;6.696;2023-12-20T01:14:38;5.50;99.90
65692;DHT22;52411;52.716;6.696;2023-12-20T01:17:04;5.60;99.90
65692;DHT22;52411;52.716;6.696;2023-12-20T01:19:30;5.60;99.90
65692;DHT22;52411;52.716;6.696;2023-12-20T01:21:55;5.60;99.90
65692;DHT22;52411;52.716;6.696;2023-12-20T01:24:21;5.70;99.90
65692;DHT22;52411;52.716;6.696;2023-12-20T01:26:47;5.80;99.90
65692;DHT22;52411;52.716;6.696;2023-12-20T01:29:12;6.00;99.90
65692;DHT22;52411;52.716;6.696;2023-12-20T01:31:39;6.10;99.90
65692;DHT22;52411;52.716;6.696;2023-12-20T01:34:06;6.10;99.90
65692;DHT22;52411;52.716;6.696;2023-12-20T01:36:31;6.10;99.90
65692;DHT22;52411;52.716;6.696;2023-12-20T01:38:57;6.00;99.90
65692;DHT22;52411;52.716;6.696;2023-12-20T01:41:22;6.00;99.90
65692;DHT22;52411;52.716;6.696;2023-12-20T01:43:48;5.90;99.90
65692;DHT22;52411;52.716;6.696;2023-12-20T01:46:14;5.90;99.90
65692;DHT22;52411;52.716;6.696;2023-12-20T01:48:40;5.90;99.90
65692;DHT22;52411;52.716;6.696;2023-12-20T01:51:06;5.90;99.90
65692;DHT22;52411;52.716;6.696;2023-12-20T01:53:32;5.90;99.90
65692;DHT22;52411;52.716;6.696;2023-12-20T01:55:58;6.00;99.90
65692;DHT22;52411;52.716;6.696;2023-12-20T01:58:24;6.00;99.90
65692;DHT22;52411;52.716;6.696;2023-12-20T02:00:51;6.00;99.90
65692;DHT22;52411;52.716;6.696;2023-12-20T02:03:17;6.00;99.90
65692;DHT22;52411;52.716;6.696;2023-12-20T02:05:44;6.00;99.90
65692;DHT22;52411;52.716;6.696;2023-12-20T02:08:09;6.00;99.90
65692;DHT22;52411;52.716;6.696;2023-12-20T02:10:35;6.00;99.90
65692;DHT22;52411;52.716;6.696;2023-12-20T02:13:01;6.00;99.90
65692;DHT22;52411;52.716;6.696;2023-12-20T02:15:26;6.00;99.90
65692;DHT22;52411;52.716;6.696;2023-12-20T02:17:52;6.00;99.90
65692;DHT22;52411;52.716;6.696;2023-12-20T02:20:18;6.10;99.90
65692;DHT22;52411;52.716;6.696;2023-12-20T02:22:43;6.10;99.90
65692;DHT22;52411;52.716;6.696;2023-12-20T02:25:09;6.20;99.90
65692;DHT22;52411;52.716;6.696;2023-12-20T02:27:34;6.30;99.90
65692;DHT22;52411;52.716;6.696;2023-12-20T02:30:00;6.30;99.90
65692;DHT22;52411;52.716;6.696;2023-12-20T02:32:26;6.40;99.90
65692;DHT22;52411;52.716;6.696;2023-12-20T02:34:51;6.40;99.90
65692;DHT22;52411;52.716;6.696;2023-12-20T02:37:17;6.40;99.90
65692;DHT22;52411;52.716;6.696;2023-12-20T02:39:42;6.50;99.90
65692;DHT22;52411;52.716;6.696;2023-12-20T02:42:08;6.50;99.90
65692;DHT22;52411;52.716;6.696;2023-12-20T02:44:34;6.50;99.90
65692;DHT22;52411;52.716;6.696;2023-12-20T02:46:59;6.60;99.90
65692;DHT22;52411;52.716;6.696;2023-12-20T02:49:25;6.60;99.90
65692;DHT22;52411;52.716;6.696;2023-12-20T02:51:50;6.60;99.90
65692;DHT22;52411;52.716;6.696;2023-12-20T02:54:16;6.60;99.90
65692;DHT22;52411;52.716;6.696;2023-12-20T02:56:41;6.70;99.90
65692;DHT22;52411;52.716;6.696;2023-12-20T02:59:07;6.80;99.90
65692;DHT22;52411;52.716;6.696;2023-12-20T03:01:34;6.70;99.90
65692;DHT22;52411;52.716;6.696;2023-12-20T03:04:00;6.80;99.90
65692;DHT22;52411;52.716;6.696;2023-12-20T03:06:26;6.70;99.90
65692;DHT22;52411;52.716;6.696;2023-12-20T03:08:51;6.80;99.90
65692;DHT22;52411;52.716;6.696;2023-12-20T03:11:17;6.80;99.90
65692;DHT22;52411;52.716;6.696;2023-12-20T03:13:43;6.80;99.90
65692;DHT22;52411;52.716;6.696;2023-12-20T03:16:09;6.80;99.90
65692;DHT22;52411;52.716;6.696;2023-12-20T03:18:35;6.70;99.90
65692;DHT22;52411;52.716;6.696;2023-12-20T03:21:01;6.70;99.90
65692;DHT22;52411;52.716;6.696;2023-12-20T03:23:26;6.70;99.90
65692;DHT22;52411;52.716;6.696;2023-12-20T03:25:52;6.70;99.90
65692;DHT22;52411;52.716;6.696;2023-12-20T03:28:18;6.70;99.90
65692;DHT22;52411;52.716;6.696;2023-12-20T03:30:44;6.70;99.90
65692;DHT22;52411;52.716;6.696;2023-12-20T03:33:10;6.70;99.90
65692;DHT22;52411;52.716;6.696;2023-12-20T03:35:35;6.70;99.90
65692;DHT22;52411;52.716;6.696;2023-12-20T03:38:01;6.60;99.90
65692;DHT22;52411;52.716;6.696;2023-12-20T03:40:26;6.60;99.90
65692;DHT22;52411;52.716;6.696;2023-12-20T03:42:52;6.60;99.90
65692;DHT22;52411;52.716;6.696;2023-12-20T03:45:17;6.60;99.90
65692;DHT22;52411;52.716;6.696;2023-12-20T03:47:43;6.60;99.90
65692;DHT22;52411;52.716;6.696;2023-12-20T03:50:08;6.60;99.90
65692;DHT22;52411;52.716;6.696;2023-12-20T03:52:34;6.60;99.90
65692;DHT22;52411;52.716;6.696;2023-12-20T03:54:59;6.60;99.90
65692;DHT22;52411;52.716;6.696;2023-12-20T03:57:25;6.60;99.90
65692;DHT22;52411;52.716;6.696;2023-12-20T03:59:51;6.60;99.90
65692;DHT22;52411;52.716;6.696;2023-12-20T04:02:16;6.60;99.90
65692;DHT22;52411;52.716;6.696;2023-12-20T04:04:43;6.60;99.90
65692;DHT22;52411;52.716;6.696;2023-12-20T04:07:08;6.60;99.90
65692;DHT22;52411;52.716;6.696;2023-12-20T04:09:34;6.60;99.90
65692;DHT22;52411;52.716;6.696;2023-12-20T04:12:00;6.60;99.90
65692;DHT22;52411;52.716;6.696;2023-12-20T04:14:25;6.60;99.90
65692;DHT22;52411;52.716;6.696;2023-12-20T04:16:51;6.60;99.90
65692;DHT22;52411;52.716;6.696;2023-12-20T04:19:16;6.60;99.90
65692;DHT22;52411;52.716;6.696;2023-12-20T04:21:42;6.70;99.90
65692;DHT22;52411;52.716;6.696;2023-12-20T04:24:07;6.70;99.90
65692;DHT22;52411;52.716;6.696;2023-12-20T04:26:33;6.70;99.90
65692;DHT22;52411;52.716;6.696;2023-12-20T04:28:59;6.70;99.90
65692;DHT22;52411;52.716;6.696;2023-12-20T04:31:24;6.70;99.90
65692;DHT22;52411;52.716;6.696;2023-12-20T04:33:50;6.80;99.90
65692;DHT22;52411;52.716;6.696;2023-12-20T04:36:15;6.90;99.90
65692;DHT22;52411;52.716;6.696;2023-12-20T04:38:41;6.90;99.90
65692;DHT22;52411;52.716;6.696;2023-12-20T04:41:07;6.90;99.90
65692;DHT22;52411;52.716;6.696;2023-12-20T04:43:32;7.00;99.90
65692;DHT22;52411;52.716;6.696;2023-12-20T04:45:58;7.00;99.90
65692;DHT22;52411;52.716;6.696;2023-12-20T04:48:23;7.00;99.90
65692;DHT22;52411;52.716;6.696;2023-12-20T04:50:49;7.00;99.90
65692;DHT22;52411;52.716;6.696;2023-12-20T04:53:14;7.00;99.90
65692;DHT22;52411;52.716;6.696;2023-12-20T04:55:40;7.00;99.90
65692;DHT22;52411;52.716;6.696;2023-12-20T04:58:06;7.10;99.90
65692;DHT22;52411;52.716;6.696;2023-12-20T05:00:31;7.10;99.90
65692;DHT22;52411;52.716;6.696;2023-12-20T05:02:57;7.10;99.90
65692;DHT22;52411;52.716;6.696;2023-12-20T05:05:22;7.10;99.90
65692;DHT22;52411;52.716;6.696;2023-12-20T05:07:48;7.10;99.90
65692;DHT22;52411;52.716;6.696;2023-12-20T05:10:13;7.00;99.90
65692;DHT22;52411;52.716;6.696;2023-12-20T05:12:39;7.10;99.90
65692;DHT22;52411;52.716;6.696;2023-12-20T05:15:06;7.10;99.90
65692;DHT22;52411;52.716;6.696;2023-12-20T05:17:31;7.10;99.90
65692;DHT22;52411;52.716;6.696;2023-12-20T05:19:57;7.10;99.90
65692;DHT22;52411;52.716;6.696;2023-12-20T05:22:23;7.20;99.90
65692;DHT22;52411;52.716;6.696;2023-12-20T05:24:48;7.20;99.90
65692;DHT22;52411;52.716;6.696;2023-12-20T05:27:14;7.10;99.90
65692;DHT22;52411;52.716;6.696;2023-12-20T05:29:40;7.20;99.90
65692;DHT22;52411;52.716;6.696;2023-12-20T05:32:05;7.20;99.90
65692;DHT22;52411;52.716;6.696;2023-12-20T05:34:31;7.20;99.90
65692;DHT22;52411;52.716;6.696;2023-12-20T05:36:58;7.20;99.90
65692;DHT22;52411;52.716;6.696;2023-12-20T05:39:23;7.30;99.90
65692;DHT22;52411;52.716;6.696;2023-12-20T05:41:49;7.30;99.90
65692;DHT22;52411;52.716;6.696;2023-12-20T05:44:15;7.30;99.90
65692;DHT22;52411;52.716;6.696;2023-12-20T05:46:40;7.30;99.90
65692;DHT22;52411;52.716;6.696;2023-12-20T05:49:06;7.30;99.90
65692;DHT22;52411;52.716;6.696;2023-12-20T05:54:09;7.30;99.90
65692;DHT22;52411;52.716;6.696;2023-12-20T05:56:35;7.30;99.90
65692;DHT22;52411;52.716;6.696;2023-12-20T06:09:52;7.40;99.90
65692;DHT22;52411;52.716;6.696;2023-12-20T06:12:17;7.40;99.90
65692;DHT22;52411;52.716;6.696;2023-12-20T06:14:43;7.40;99.90
65692;DHT22;52411;52.716;6.696;2023-12-20T06:17:08;7.50;99.90
65692;DHT22;52411;52.716;6.696;2023-12-20T06:32:24;7.60;99.90
65692;DHT22;52411;52.716;6.696;2023-12-20T06:34:49;7.60;99.90
65692;DHT22;52411;52.716;6.696;2023-12-20T06:37:15;7.60;99.90
65692;DHT22;52411;52.716;6.696;2023-12-20T06:39:41;7.60;99.90
65692;DHT22;52411;52.716;6.696;2023-12-20T06:42:06;7.60;99.90
65692;DHT22;52411;52.716;6.696;2023-12-20T06:44:32;7.60;99.90
65692;DHT22;52411;52.716;6.696;2023-12-20T06:49:27;7.60;99.90
65692;DHT22;52411;52.716;6.696;2023-12-20T06:51:53;7.60;99.90
65692;DHT22;52411;52.716;6.696;2023-12-20T06:54:19;7.60;99.90
65692;DHT22;52411;52.716;6.696;2023-12-20T06:56:44;7.60;99.90
65692;DHT22;52411;52.716;6.696;2023-12-20T06:59:10;7.70;99.90
65692;DHT22;52411;52.716;6.696;2023-12-20T07:01:35;7.70;99.90
65692;DHT22;52411;52.716;6.696;2023-12-20T07:04:01;7.80;99.90
65692;DHT22;52411;52.716;6.696;2023-12-20T07:06:26;7.80;99.90
65692;DHT22;52411;52.716;6.696;2023-12-20T07:08:52;7.80;99.90
65692;DHT22;52411;52.716;6.696;2023-12-20T07:11:18;7.80;99.90
65692;DHT22;52411;52.716;6.696;2023-12-20T07:16:19;7.80;99.90
65692;DHT22;52411;52.716;6.696;2023-12-20T07:18:44;7.80;99.90
65692;DHT22;52411;52.716;6.696;2023-12-20T07:21:10;7.80;99.90
65692;DHT22;52411;52.716;6.696;2023-12-20T07:23:36;7.90;99.90
65692;DHT22;52411;52.716;6.696;2023-12-20T07:26:01;7.90;99.90
65692;DHT22;52411;52.716;6.696;2023-12-20T07:38:28;7.90;99.90
65692;DHT22;52411;52.716;6.696;2023-12-20T07:43:29;7.90;99.90
65692;DHT22;52411;52.716;6.696;2023-12-20T07:45:55;8.00;99.90
65692;DHT22;52411;52.716;6.696;2023-12-20T07:48:20;8.00;99.90
65692;DHT22;52411;52.716;6.696;2023-12-20T07:50:46;8.00;99.90
65692;DHT22;52411;52.716;6.696;2023-12-20T07:53:11;7.90;99.90
65692;DHT22;52411;52.716;6.696;2023-12-20T07:58:10;7.90;99.90
65692;DHT22;52411;52.716;6.696;2023-12-20T08:00:36;7.90;99.90
65692;DHT22;52411;52.716;6.696;2023-12-20T08:03:02;8.00;99.90
65692;DHT22;52411;52.716;6.696;2023-12-20T08:05:28;7.90;99.90
65692;DHT22;52411;52.716;6.696;2023-12-20T08:07:54;7.90;99.90
65692;DHT22;52411;52.716;6.696;2023-12-20T08:10:19;7.90;99.90
65692;DHT22;52411;52.716;6.696;2023-12-20T08:12:45;7.90;99.90
65692;DHT22;52411;52.716;6.696;2023-12-20T08:15:10;7.90;99.90
65692;DHT22;52411;52.716;6.696;2023-12-20T08:17:36;7.90;99.90
65692;DHT22;52411;52.716;6.696;2023-12-20T08:20:02;7.90;99.90
65692;DHT22;52411;52.716;6.696;2023-12-20T08:22:27;7.90;99.90
65692;DHT22;52411;52.716;6.696;2023-12-20T08:24:53;8.00;99.90
65692;DHT22;52411;52.716;6.696;2023-12-20T08:27:18;8.00;99.90
65692;DHT22;52411;52.716;6.696;2023-12-20T08:29:44;8.00;99.90
65692;DHT22;52411;52.716;6.696;2023-12-20T08:32:10;8.00;99.90
65692;DHT22;52411;52.716;6.696;2023-12-20T08:34:36;8.00;99.90
65692;DHT22;52411;52.716;6.696;2023-12-20T08:37:02;8.10;99.90
65692;DHT22;52411;52.716;6.696;2023-12-20T08:39:27;8.10;99.90
65692;DHT22;52411;52.716;6.696;2023-12-20T08:41:55;8.10;99.90
65692;DHT22;52411;52.716;6.696;2023-12-20T08:44:20;8.10;99.90
65692;DHT22;52411;52.716;6.696;2023-12-20T08:46:47;8.10;99.90
65692;DHT22;52411;52.716;6.696;2023-12-20T08:49:13;8.10;99.90
65692;DHT22;52411;52.716;6.696;2023-12-20T08:51:39;8.10;99.90
65692;DHT22;52411;52.716;6.696;2023-12-20T08:54:06;8.20;99.90
65692;DHT22;52411;52.716;6.696;2023-12-20T08:56:33;8.30;99.90
65692;DHT22;52411;52.716;6.696;2023-12-20T08:58:59;8.20;99.90
65692;DHT22;52411;52.716;6.696;2023-12-20T09:01:24;8.20;99.90
65692;DHT22;52411;52.716;6.696;2023-12-20T09:03:50;8.30;99.90
65692;DHT22;52411;52.716;6.696;2023-12-20T09:06:15;8.30;99.90
65692;DHT22;52411;52.716;6.696;2023-12-20T09:08:41;8.30;99.90
65692;DHT22;52411;52.716;6.696;2023-12-20T09:11:07;8.30;99.90
65692;DHT22;52411;52.716;6.696;2023-12-20T09:13:32;8.40;99.90
65692;DHT22;52411;52.716;6.696;2023-12-20T09:15:59;8.50;99.90
65692;DHT22;52411;52.716;6.696;2023-12-20T09:18:25;8.50;99.90
65692;DHT22;52411;52.716;6.696;2023-12-20T09:20:50;8.50;99.90
65692;DHT22;52411;52.716;6.696;2023-12-20T09:23:16;8.50;99.90
65692;DHT22;52411;52.716;6.696;2023-12-20T09:25:43;8.50;99.90
65692;DHT22;52411;52.716;6.696;2023-12-20T09:28:09;8.60;99.90
65692;DHT22;52411;52.716;6.696;2023-12-20T09:30:35;8.70;99.90
65692;DHT22;52411;52.716;6.696;2023-12-20T09:33:05;8.70;99.90
65692;DHT22;52411;52.716;6.696;2023-12-20T09:35:32;8.70;99.90
65692;DHT22;52411;52.716;6.696;2023-12-20T09:37:57;8.70;99.90
65692;DHT22;52411;52.716;6.696;2023-12-20T09:40:26;8.80;99.90
65692;DHT22;52411;52.716;6.696;2023-12-20T09:43:03;8.80;99.90
65692;DHT22;52411;52.716;6.696;2023-12-20T09:45:31;8.80;99.90
65692;DHT22;52411;52.716;6.696;2023-12-20T09:47:57;8.90;99.90
65692;DHT22;52411;52.716;6.696;2023-12-20T09:50:23;9.00;99.90
65692;DHT22;52411;52.716;6.696;2023-12-20T09:52:53;9.10;99.90
65692;DHT22;52411;52.716;6.696;2023-12-20T09:55:19;9.20;99.90
65692;DHT22;52411;52.716;6.696;2023-12-20T09:57:46;9.20;99.90
65692;DHT22;52411;52.716;6.696;2023-12-20T10:00:13;9.10;99.90
65692;DHT22;52411;52.716;6.696;2023-12-20T10:02:44;9.00;99.90
65692;DHT22;52411;52.716;6.696;2023-12-20T10:05:16;9.00;99.90
65692;DHT22;52411;52.716;6.696;2023-12-20T10:07:44;8.90;99.90
65692;DHT22;52411;52.716;6.696;2023-12-20T10:10:10;8.90;99.90
65692;DHT22;52411;52.716;6.696;2023-12-20T10:12:38;8.80;99.90
65692;DHT22;52411;52.716;6.696;2023-12-20T10:15:04;8.60;99.90
65692;DHT22;52411;52.716;6.696;2023-12-20T10:17:30;8.40;99.90
65692;DHT22;52411;52.716;6.696;2023-12-20T10:19:56;8.00;99.90
65692;DHT22;52411;52.716;6.696;2023-12-20T10:22:22;7.60;99.90
65692;DHT22;52411;52.716;6.696;2023-12-20T10:24:48;7.30;99.90
65692;DHT22;52411;52.716;6.696;2023-12-20T10:27:13;7.00;99.90
65692;DHT22;52411;52.716;6.696;2023-12-20T10:29:39;7.00;99.90
65692;DHT22;52411;52.716;6.696;2023-12-20T10:32:30;6.90;99.90
65692;DHT22;52411;52.716;6.696;2023-12-20T10:34:56;6.80;99.90
65692;DHT22;52411;52.716;6.696;2023-12-20T10:37:22;6.80;99.90
65692;DHT22;52411;52.716;6.696;2023-12-20T10:39:53;6.80;99.90
65692;DHT22;52411;52.716;6.696;2023-12-20T10:42:22;6.80;99.90
65692;DHT22;52411;52.716;6.696;2023-12-20T10:44:49;6.80;99.90
65692;DHT22;52411;52.716;6.696;2023-12-20T10:47:15;6.80;99.90
65692;DHT22;52411;52.716;6.696;2023-12-20T10:49:41;6.80;99.90
65692;DHT22;52411;52.716;6.696;2023-12-20T10:52:09;6.80;99.90
65692;DHT22;52411;52.716;6.696;2023-12-20T10:54:34;6.80;99.90
65692;DHT22;52411;52.716;6.696;2023-12-20T10:57:00;6.90;99.90
65692;DHT22;52411;52.716;6.696;2023-12-20T10:59:36;6.90;99.90
65692;DHT22;52411;52.716;6.696;2023-12-20T11:02:03;7.00;99.90
65692;DHT22;52411;52.716;6.696;2023-12-20T11:04:46;7.10;99.90
65692;DHT22;52411;52.716;6.696;2023-12-20T11:07:21;7.10;99.90
65692;DHT22;52411;52.716;6.696;2023-12-20T11:10:01;7.20;99.90
65692;DHT22;52411;52.716;6.696;2023-12-20T11:12:37;7.20;99.90
65692;DHT22;52411;52.716;6.696;2023-12-20T11:15:06;7.30;99.90
65692;DHT22;52411;52.716;6.696;2023-12-20T11:17:33;7.30;99.90
65692;DHT22;52411;52.716;6.696;2023-12-20T11:22:25;7.30;99.90
65692;DHT22;52411;52.716;6.696;2023-12-20T11:24:52;7.20;99.90
65692;DHT22;52411;52.716;6.696;2023-12-20T11:27:19;7.30;99.90
65692;DHT22;52411;52.716;6.696;2023-12-20T11:29:52;7.30;99.90
65692;DHT22;52411;52.716;6.696;2023-12-20T11:35:00;7.40;99.90
65692;DHT22;52411;52.716;6.696;2023-12-20T11:37:30;7.40;99.90
65692;DHT22;52411;52.716;6.696;2023-12-20T11:40:17;7.40;99.90
65692;DHT22;52411;52.716;6.696;2023-12-20T11:42:49;7.50;99.90
65692;DHT22;52411;52.716;6.696;2023-12-20T11:45:17;7.50;99.90
65692;DHT22;52411;52.716;6.696;2023-12-20T11:47:46;7.50;99.90
65692;DHT22;52411;52.716;6.696;2023-12-20T11:50:13;7.60;99.90
65692;DHT22;52411;52.716;6.696;2023-12-20T11:52:38;7.60;99.90
65692;DHT22;52411;52.716;6.696;2023-12-20T11:55:04;7.50;99.90
65692;DHT22;52411;52.716;6.696;2023-12-20T11:57:31;7.50;99.90
65692;DHT22;52411;52.716;6.696;2023-12-20T11:59:57;7.50;99.90
65692;DHT22;52411;52.716;6.696;2023-12-20T12:02:22;7.50;99.90
65692;DHT22;52411;52.716;6.696;2023-12-20T12:04:49;7.50;99.90
65692;DHT22;52411;52.716;6.696;2023-12-20T12:07:16;7.50;99.90
65692;DHT22;52411;52.716;6.696;2023-12-20T12:09:43;7.50;99.90
65692;DHT22;52411;52.716;6.696;2023-12-20T12:12:08;7.50;99.90
65692;DHT22;52411;52.716;6.696;2023-12-20T12:14:34;7.60;99.90
65692;DHT22;52411;52.716;6.696;2023-12-20T12:17:02;7.60;99.90
65692;DHT22;52411;52.716;6.696;2023-12-20T12:19:28;7.60;99.90
65692;DHT22;52411;52.716;6.696;2023-12-20T12:22:14;7.70;99.90
65692;DHT22;52411;52.716;6.696;2023-12-20T12:24:42;7.70;99.90
65692;DHT22;52411;52.716;6.696;2023-12-20T12:27:08;7.70;99.90
65692;DHT22;52411;52.716;6.696;2023-12-20T12:29:35;7.70;99.90
65692;DHT22;52411;52.716;6.696;2023-12-20T12:32:04;7.70;99.90
65692;DHT22;52411;52.716;6.696;2023-12-20T12:34:29;7.70;99.90
65692;DHT22;52411;52.716;6.696;2023-12-20T12:36:56;7.70;99.90
65692;DHT22;52411;52.716;6.696;2023-12-20T12:39:24;7.70;99.90
65692;DHT22;52411;52.716;6.696;2023-12-20T12:41:53;7.60;99.90
65692;DHT22;52411;52.716;6.696;2023-12-20T12:44:19;7.60;99.90
65692;DHT22;52411;52.716;6.696;2023-12-20T12:46:48;7.60;99.90
65692;DHT22;52411;52.716;6.696;2023-12-20T12:49:21;7.60;99.90
65692;DHT22;52411;52.716;6.696;2023-12-20T12:51:47;7.60;99.90
65692;DHT22;52411;52.716;6.696;2023-12-20T12:54:13;7.50;99.90
65692;DHT22;52411;52.716;6.696;2023-12-20T12:56:40;7.40;99.90
65692;DHT22;52411;52.716;6.696;2023-12-20T12:59:06;7.40;99.90
65692;DHT22;52411;52.716;6.696;2023-12-20T13:01:32;7.30;99.90
65692;DHT22;52411;52.716;6.696;2023-12-20T13:03:57;7.20;99.90
65692;DHT22;52411;52.716;6.696;2023-12-20T13:06:23;7.10;99.90
65692;DHT22;52411;52.716;6.696;2023-12-20T13:08:49;7.00;99.90
65692;DHT22;52411;52.716;6.696;2023-12-20T13:11:15;7.00;99.90
65692;DHT22;52411;52.716;6.696;2023-12-20T13:13:40;6.90;99.90
65692;DHT22;52411;52.716;6.696;2023-12-20T13:16:06;6.80;99.90
65692;DHT22;52411;52.716;6.696;2023-12-20T13:18:31;6.80;99.90
65692;DHT22;52411;52.716;6.696;2023-12-20T13:20:57;6.70;99.90
65692;DHT22;52411;52.716;6.696;2023-12-20T13:23:23;6.70;99.90
65692;DHT22;52411;52.716;6.696;2023-12-20T13:25:48;6.70;99.90
65692;DHT22;52411;52.716;6.696;2023-12-20T13:28:14;6.60;99.90
65692;DHT22;52411;52.716;6.696;2023-12-20T13:30:40;6.60;99.90
65692;DHT22;52411;52.716;6.696;2023-12-20T13:33:06;6.50;99.90
65692;DHT22;52411;52.716;6.696;2023-12-20T13:35:32;6.50;99.90
65692;DHT22;52411;52.716;6.696;2023-12-20T13:38:00;6.40;99.90
65692;DHT22;52411;52.716;6.696;2023-12-20T13:40:26;6.50;99.90
65692;DHT22;52411;52.716;6.696;2023-12-20T13:42:51;6.50;99.90
65692;DHT22;52411;52.716;6.696;2023-12-20T13:45:17;6.40;99.90
65692;DHT22;52411;52.716;6.696;2023-12-20T13:47:43;6.40;99.90
65692;DHT22;52411;52.716;6.696;2023-12-20T13:50:09;6.40;99.90
65692;DHT22;52411;52.716;6.696;2023-12-20T13:52:35;6.40;99.90
65692;DHT22;52411;52.716;6.696;2023-12-20T13:55:00;6.40;99.90
65692;DHT22;52411;52.716;6.696;2023-12-20T13:57:26;6.40;99.90
65692;DHT22;52411;52.716;6.696;2023-12-20T13:59:51;6.40;99.90
65692;DHT22;52411;52.716;6.696;2023-12-20T14:02:17;6.40;99.90
65692;DHT22;52411;52.716;6.696;2023-12-20T14:04:42;6.40;99.90
65692;DHT22;52411;52.716;6.696;2023-12-20T14:13:59;6.50;99.90
65692;DHT22;52411;52.716;6.696;2023-12-20T14:16:27;6.50;99.90
65692;DHT22;52411;52.716;6.696;2023-12-20T14:18:52;6.60;99.90
65692;DHT22;52411;52.716;6.696;2023-12-20T14:21:18;6.60;99.90
65692;DHT22;52411;52.716;6.696;2023-12-20T14:23:45;6.60;99.90
65692;DHT22;52411;52.716;6.696;2023-12-20T14:26:11;6.60;99.90
65692;DHT22;52411;52.716;6.696;2023-12-20T14:28:41;6.60;99.90
65692;DHT22;52411;52.716;6.696;2023-12-20T14:34:53;6.60;99.90
65692;DHT22;52411;52.716;6.696;2023-12-20T14:37:20;6.60;99.90
65692;DHT22;52411;52.716;6.696;2023-12-20T14:39:45;6.50;99.90
65692;DHT22;52411;52.716;6.696;2023-12-20T14:42:11;6.60;99.90
65692;DHT22;52411;52.716;6.696;2023-12-20T14:44:40;6.60;99.90
65692;DHT22;52411;52.716;6.696;2023-12-20T14:47:06;6.70;99.90
65692;DHT22;52411;52.716;6.696;2023-12-20T14:49:32;6.70;99.90
65692;DHT22;52411;52.716;6.696;2023-12-20T14:51:58;6.70;99.90
65692;DHT22;52411;52.716;6.696;2023-12-20T14:54:24;6.80;99.90
65692;DHT22;52411;52.716;6.696;2023-12-20T14:56:50;6.80;99.90
65692;DHT22;52411;52.716;6.696;2023-12-20T14:59:16;6.90;99.90
65692;DHT22;52411;52.716;6.696;2023-12-20T15:01:41;7.00;99.90
65692;DHT22;52411;52.716;6.696;2023-12-20T15:04:08;7.00;99.90
65692;DHT22;52411;52.716;6.696;2023-12-20T15:06:33;7.10;99.90
65692;DHT22;52411;52.716;6.696;2023-12-20T15:08:59;7.20;99.90
65692;DHT22;52411;52.716;6.696;2023-12-20T15:11:26;7.30;99.90
65692;DHT22;52411;52.716;6.696;2023-12-20T15:13:51;7.30;99.90
65692;DHT22;52411;52.716;6.696;2023-12-20T15:16:22;7.30;99.90
65692;DHT22;52411;52.716;6.696;2023-12-20T15:18:48;7.30;99.90
65692;DHT22;52411;52.716;6.696;2023-12-20T15:21:14;7.40;99.90
65692;DHT22;52411;52.716;6.696;2023-12-20T15:23:40;7.40;99.90
65692;DHT22;52411;52.716;6.696;2023-12-20T15:26:09;7.50;99.90
65692;DHT22;52411;52.716;6.696;2023-12-20T15:28:34;7.40;99.90
65692;DHT22;52411;52.716;6.696;2023-12-20T15:31:00;7.50;99.90
65692;DHT22;52411;52.716;6.696;2023-12-20T15:33:25;7.60;99.90
65692;DHT22;52411;52.716;6.696;2023-12-20T15:35:51;7.60;99.90
65692;DHT22;52411;52.716;6.696;2023-12-20T15:38:16;7.70;99.90
65692;DHT22;52411;52.716;6.696;2023-12-20T15:40:42;7.80;99.90
65692;DHT22;52411;52.716;6.696;2023-12-20T15:43:08;7.80;99.90
65692;DHT22;52411;52.716;6.696;2023-12-20T15:45:33;7.80;99.90
65692;DHT22;52411;52.716;6.696;2023-12-20T15:47:59;7.90;99.90
65692;DHT22;52411;52.716;6.696;2023-12-20T15:50:24;7.90;99.90
65692;DHT22;52411;52.716;6.696;2023-12-20T15:52:51;7.90;99.90
65692;DHT22;52411;52.716;6.696;2023-12-20T15:55:17;7.90;99.90
65692;DHT22;52411;52.716;6.696;2023-12-20T15:57:42;7.90;99.90
65692;DHT22;52411;52.716;6.696;2023-12-20T16:00:08;7.90;99.90
65692;DHT22;52411;52.716;6.696;2023-12-20T16:02:34;7.90;99.90
65692;DHT22;52411;52.716;6.696;2023-12-20T16:04:59;7.90;99.90
65692;DHT22;52411;52.716;6.696;2023-12-20T16:07:25;7.90;99.90
65692;DHT22;52411;52.716;6.696;2023-12-20T16:09:50;7.90;99.90
65692;DHT22;52411;52.716;6.696;2023-12-20T16:12:16;7.90;99.90
65692;DHT22;52411;52.716;6.696;2023-12-20T16:14:42;7.90;99.90
65692;DHT22;52411;52.716;6.696;2023-12-20T16:17:07;7.90;99.90
65692;DHT22;52411;52.716;6.696;2023-12-20T16:19:33;7.90;99.90
65692;DHT22;52411;52.716;6.696;2023-12-20T16:21:58;7.90;99.90
65692;DHT22;52411;52.716;6.696;2023-12-20T16:24:24;7.90;99.90
65692;DHT22;52411;52.716;6.696;2023-12-20T16:26:50;7.90;99.90
65692;DHT22;52411;52.716;6.696;2023-12-20T16:29:15;7.90;99.90
65692;DHT22;52411;52.716;6.696;2023-12-20T16:31:41;7.90;99.90
65692;DHT22;52411;52.716;6.696;2023-12-20T16:34:06;7.90;99.90
65692;DHT22;52411;52.716;6.696;2023-12-20T16:36:53;7.90;99.90
65692;DHT22;52411;52.716;6.696;2023-12-20T16:39:23;7.90;99.90
65692;DHT22;52411;52.716;6.696;2023-12-20T16:41:48;7.90;99.90